sensor_id;sensor_type;location;lat;lon;timestamp;pressure;altitude;pressure_sealevel;temperature;humidity
10948;BME280;5526;42.070;24.752;2023-01-26T00:00:54;99842.09;;;4.83;89.34
10948;BME280;5526;42.070;24.752;2023-01-26T00:03:23;99826.00;;;4.79;89.81
10948;BME280;5526;42.070;24.752;2023-01-26T00:05:51;99844.53;;;4.91;90.10
10948;BME280;5526;42.070;24.752;2023-01-26T00:08:18;99834.28;;;4.89;90.32
10948;BME280;5526;42.070;24.752;2023-01-26T00:10:45;99821.44;;;4.81;90.66
10948;BME280;5526;42.070;24.752;2023-01-26T00:13:17;99814.59;;;4.80;90.41
10948;BME280;5526;42.070;24.752;2023-01-26T00:15:45;99809.78;;;4.77;89.95
10948;BME280;5526;42.070;24.752;2023-01-26T00:18:12;99804.97;;;4.81;89.40
10948;BME280;5526;42.070;24.752;2023-01-26T00:20:41;99794.97;;;4.84;89.35
10948;BME280;5526;42.070;24.752;2023-01-26T00:23:08;99791.72;;;4.76;89.39
10948;BME280;5526;42.070;24.752;2023-01-26T00:25:37;99795.34;;;4.75;89.58
10948;BME280;5526;42.070;24.752;2023-01-26T00:28:05;99799.34;;;4.71;89.23
10948;BME280;5526;42.070;24.752;2023-01-26T00:30:33;99798.53;;;4.70;89.01
10948;BME280;5526;42.070;24.752;2023-01-26T00:33:00;99808.75;;;4.65;88.78
10948;BME280;5526;42.070;24.752;2023-01-26T00:35:27;99798.91;;;4.67;88.82
10948;BME280;5526;42.070;24.752;2023-01-26T00:37:56;99798.16;;;4.80;88.78
10948;BME280;5526;42.070;24.752;2023-01-26T00:40:23;99788.91;;;4.71;89.23
10948;BME280;5526;42.070;24.752;2023-01-26T00:42:50;99784.06;;;4.61;89.31
10948;BME280;5526;42.070;24.752;2023-01-26T00:45:19;99793.69;;;4.67;89.88
10948;BME280;5526;42.070;24.752;2023-01-26T00:47:46;99790.09;;;4.68;89.71
10948;BME280;5526;42.070;24.752;2023-01-26T00:50:14;99788.84;;;4.57;90.74
10948;BME280;5526;42.070;24.752;2023-01-26T00:52:41;99792.06;;;4.59;91.35
10948;BME280;5526;42.070;24.752;2023-01-26T00:55:10;99780.06;;;4.65;91.03
10948;BME280;5526;42.070;24.752;2023-01-26T00:57:37;99780.25;;;4.57;91.10
10948;BME280;5526;42.070;24.752;2023-01-26T01:00:05;99774.84;;;4.58;91.22
10948;BME280;5526;42.070;24.752;2023-01-26T01:02:33;99776.81;;;4.50;91.70
10948;BME280;5526;42.070;24.752;2023-01-26T01:05:01;99778.38;;;4.44;92.09
10948;BME280;5526;42.070;24.752;2023-01-26T01:07:28;99784.41;;;4.45;91.63
10948;BME280;5526;42.070;24.752;2023-01-26T01:09:55;99782.00;;;4.43;91.58
10948;BME280;5526;42.070;24.752;2023-01-26T01:12:26;99780.22;;;4.50;92.04
10948;BME280;5526;42.070;24.752;2023-01-26T01:14:54;99757.94;;;4.48;91.57
10948;BME280;5526;42.070;24.752;2023-01-26T01:17:21;99772.63;;;4.55;91.49
10948;BME280;5526;42.070;24.752;2023-01-26T01:19:48;99774.59;;;4.53;91.38
10948;BME280;5526;42.070;24.752;2023-01-26T01:22:16;99767.22;;;4.57;91.67
10948;BME280;5526;42.070;24.752;2023-01-26T01:24:43;99763.59;;;4.51;91.80
10948;BME280;5526;42.070;24.752;2023-01-26T01:27:10;99762.38;;;4.54;91.67
10948;BME280;5526;42.070;24.752;2023-01-26T01:29:39;99759.38;;;4.50;91.72
10948;BME280;5526;42.070;24.752;2023-01-26T01:32:06;99760.78;;;4.53;92.25
10948;BME280;5526;42.070;24.752;2023-01-26T01:34:33;99758.78;;;4.61;92.36
10948;BME280;5526;42.070;24.752;2023-01-26T01:37:01;99760.44;;;4.69;92.24
10948;BME280;5526;42.070;24.752;2023-01-26T01:39:28;99747.59;;;4.74;92.01
10948;BME280;5526;42.070;24.752;2023-01-26T01:41:55;99752.63;;;4.76;91.67
10948;BME280;5526;42.070;24.752;2023-01-26T01:44:24;99747.97;;;4.64;91.97
10948;BME280;5526;42.070;24.752;2023-01-26T01:46:55;99739.91;;;4.46;93.44
10948;BME280;5526;42.070;24.752;2023-01-26T01:49:27;99729.78;;;4.24;94.96
10948;BME280;5526;42.070;24.752;2023-01-26T01:51:59;99727.84;;;3.92;97.46
10948;BME280;5526;42.070;24.752;2023-01-26T01:54:32;99720.75;;;3.79;98.61
10948;BME280;5526;42.070;24.752;2023-01-26T01:57:05;99726.03;;;3.86;98.95
10948;BME280;5526;42.070;24.752;2023-01-26T01:59:42;99719.06;;;3.59;100.00
10948;BME280;5526;42.070;24.752;2023-01-26T02:02:13;99711.84;;;3.61;100.00
10948;BME280;5526;42.070;24.752;2023-01-26T02:04:40;99712.66;;;3.61;100.00
10948;BME280;5526;42.070;24.752;2023-01-26T02:07:09;99714.84;;;3.58;100.00
10948;BME280;5526;42.070;24.752;2023-01-26T02:09:38;99716.53;;;3.72;100.00
10948;BME280;5526;42.070;24.752;2023-01-26T02:12:28;99719.00;;;3.86;100.00
10948;BME280;5526;42.070;24.752;2023-01-26T02:14:56;99714.06;;;3.91;100.00
10948;BME280;5526;42.070;24.752;2023-01-26T02:17:25;99704.88;;;4.02;100.00
10948;BME280;5526;42.070;24.752;2023-01-26T02:19:59;99718.13;;;4.07;100.00
10948;BME280;5526;42.070;24.752;2023-01-26T02:22:40;99714.53;;;4.14;100.00
10948;BME280;5526;42.070;24.752;2023-01-26T02:25:15;99695.69;;;4.06;100.00
10948;BME280;5526;42.070;24.752;2023-01-26T02:27:47;99698.84;;;3.95;100.00
10948;BME280;5526;42.070;24.752;2023-01-26T02:30:15;99693.34;;;3.83;100.00
10948;BME280;5526;42.070;24.752;2023-01-26T02:32:43;99695.94;;;3.77;100.00
10948;BME280;5526;42.070;24.752;2023-01-26T02:35:10;99687.97;;;3.85;100.00
10948;BME280;5526;42.070;24.752;2023-01-26T02:37:37;99683.22;;;3.95;100.00
10948;BME280;5526;42.070;24.752;2023-01-26T02:40:09;99685.66;;;4.03;100.00
10948;BME280;5526;42.070;24.752;2023-01-26T02:42:40;99685.28;;;4.12;100.00
10948;BME280;5526;42.070;24.752;2023-01-26T02:45:12;99680.91;;;4.26;100.00
10948;BME280;5526;42.070;24.752;2023-01-26T02:47:40;99676.28;;;4.21;100.00
10948;BME280;5526;42.070;24.752;2023-01-26T02:50:08;99673.84;;;4.07;100.00
10948;BME280;5526;42.070;24.752;2023-01-26T02:52:35;99675.81;;;3.98;100.00
10948;BME280;5526;42.070;24.752;2023-01-26T02:55:03;99671.41;;;3.99;100.00
10948;BME280;5526;42.070;24.752;2023-01-26T02:57:50;99666.59;;;4.02;100.00
10948;BME280;5526;42.070;24.752;2023-01-26T03:00:21;99674.81;;;3.99;100.00
10948;BME280;5526;42.070;24.752;2023-01-26T03:02:50;99668.44;;;4.08;100.00
10948;BME280;5526;42.070;24.752;2023-01-26T03:05:17;99675.09;;;4.24;100.00
10948;BME280;5526;42.070;24.752;2023-01-26T03:07:45;99678.94;;;4.34;100.00
10948;BME280;5526;42.070;24.752;2023-01-26T03:10:13;99662.50;;;4.40;100.00
10948;BME280;5526;42.070;24.752;2023-01-26T03:12:41;99666.53;;;4.43;100.00
10948;BME280;5526;42.070;24.752;2023-01-26T03:15:09;99657.09;;;4.42;100.00
10948;BME280;5526;42.070;24.752;2023-01-26T03:18:01;99655.09;;;4.44;100.00
10948;BME280;5526;42.070;24.752;2023-01-26T03:20:46;99653.47;;;4.30;100.00
10948;BME280;5526;42.070;24.752;2023-01-26T03:23:31;99645.47;;;4.31;100.00
10948;BME280;5526;42.070;24.752;2023-01-26T03:26:15;99646.69;;;4.35;100.00
10948;BME280;5526;42.070;24.752;2023-01-26T03:28:59;99641.03;;;4.32;100.00
10948;BME280;5526;42.070;24.752;2023-01-26T03:31:27;99635.88;;;4.38;100.00
10948;BME280;5526;42.070;24.752;2023-01-26T03:33:55;99636.84;;;4.44;100.00
10948;BME280;5526;42.070;24.752;2023-01-26T03:36:23;99635.88;;;4.38;100.00
10948;BME280;5526;42.070;24.752;2023-01-26T03:38:50;99630.84;;;4.37;100.00
10948;BME280;5526;42.070;24.752;2023-01-26T03:41:17;99622.22;;;4.36;100.00
10948;BME280;5526;42.070;24.752;2023-01-26T03:44:01;99621.22;;;4.37;100.00
10948;BME280;5526;42.070;24.752;2023-01-26T03:46:46;99616.56;;;4.26;100.00
10948;BME280;5526;42.070;24.752;2023-01-26T03:49:31;99600.94;;;4.20;100.00
10948;BME280;5526;42.070;24.752;2023-01-26T03:52:16;99605.38;;;4.32;100.00
10948;BME280;5526;42.070;24.752;2023-01-26T03:55:00;99606.97;;;4.27;100.00
10948;BME280;5526;42.070;24.752;2023-01-26T03:57:45;99601.56;;;4.15;100.00
10948;BME280;5526;42.070;24.752;2023-01-26T04:00:14;99593.94;;;4.27;100.00
10948;BME280;5526;42.070;24.752;2023-01-26T04:02:41;99596.56;;;4.27;100.00
10948;BME280;5526;42.070;24.752;2023-01-26T04:05:27;99588.28;;;4.04;100.00
10948;BME280;5526;42.070;24.752;2023-01-26T04:08:11;99585.88;;;4.02;100.00
10948;BME280;5526;42.070;24.752;2023-01-26T04:10:48;99595.91;;;3.99;100.00
10948;BME280;5526;42.070;24.752;2023-01-26T04:13:17;99591.72;;;4.11;100.00
10948;BME280;5526;42.070;24.752;2023-01-26T04:16:01;99585.91;;;4.09;100.00
10948;BME280;5526;42.070;24.752;2023-01-26T04:18:46;99586.69;;;4.03;100.00
10948;BME280;5526;42.070;24.752;2023-01-26T04:21:32;99574.25;;;3.98;100.00
10948;BME280;5526;42.070;24.752;2023-01-26T04:24:01;99576.66;;;4.00;100.00
10948;BME280;5526;42.070;24.752;2023-01-26T04:26:35;99566.44;;;4.05;100.00
10948;BME280;5526;42.070;24.752;2023-01-26T04:29:04;99562.06;;;4.12;100.00
10948;BME280;5526;42.070;24.752;2023-01-26T04:31:32;99567.06;;;4.20;100.00
10948;BME280;5526;42.070;24.752;2023-01-26T04:34:00;99571.28;;;4.14;100.00
10948;BME280;5526;42.070;24.752;2023-01-26T04:36:28;99568.91;;;4.32;100.00
10948;BME280;5526;42.070;24.752;2023-01-26T04:38:57;99563.88;;;4.31;100.00
10948;BME280;5526;42.070;24.752;2023-01-26T04:41:24;99564.69;;;4.25;100.00
10948;BME280;5526;42.070;24.752;2023-01-26T04:43:51;99560.06;;;4.20;100.00
10948;BME280;5526;42.070;24.752;2023-01-26T04:46:19;99560.69;;;4.29;100.00
10948;BME280;5526;42.070;24.752;2023-01-26T04:48:46;99562.09;;;4.38;100.00
10948;BME280;5526;42.070;24.752;2023-01-26T04:51:14;99567.69;;;4.35;100.00
10948;BME280;5526;42.070;24.752;2023-01-26T04:53:42;99564.47;;;4.26;100.00
10948;BME280;5526;42.070;24.752;2023-01-26T04:56:18;99566.50;;;4.24;100.00
10948;BME280;5526;42.070;24.752;2023-01-26T04:58:46;99570.28;;;4.15;100.00
10948;BME280;5526;42.070;24.752;2023-01-26T05:01:13;99565.88;;;4.22;100.00
10948;BME280;5526;42.070;24.752;2023-01-26T05:03:40;99567.91;;;4.33;100.00
10948;BME280;5526;42.070;24.752;2023-01-26T05:06:08;99571.91;;;4.23;100.00
10948;BME280;5526;42.070;24.752;2023-01-26T05:08:36;99567.88;;;4.07;100.00
10948;BME280;5526;42.070;24.752;2023-01-26T05:11:03;99560.44;;;3.98;100.00
10948;BME280;5526;42.070;24.752;2023-01-26T05:13:32;99549.41;;;3.89;100.00
10948;BME280;5526;42.070;24.752;2023-01-26T05:16:00;99555.81;;;4.00;100.00
10948;BME280;5526;42.070;24.752;2023-01-26T05:18:28;99560.06;;;4.07;100.00
10948;BME280;5526;42.070;24.752;2023-01-26T05:20:55;99557.47;;;4.14;100.00
10948;BME280;5526;42.070;24.752;2023-01-26T05:23:22;99538.41;;;4.07;100.00
10948;BME280;5526;42.070;24.752;2023-01-26T05:25:50;99551.88;;;4.17;100.00
10948;BME280;5526;42.070;24.752;2023-01-26T05:28:17;99546.44;;;4.18;100.00
10948;BME280;5526;42.070;24.752;2023-01-26T05:30:46;99538.22;;;4.02;100.00
10948;BME280;5526;42.070;24.752;2023-01-26T05:33:13;99538.03;;;4.10;100.00
10948;BME280;5526;42.070;24.752;2023-01-26T05:35:41;99541.59;;;4.02;100.00
10948;BME280;5526;42.070;24.752;2023-01-26T05:38:08;99535.81;;;3.94;100.00
10948;BME280;5526;42.070;24.752;2023-01-26T05:40:35;99531.81;;;3.98;100.00
10948;BME280;5526;42.070;24.752;2023-01-26T05:43:02;99537.00;;;3.98;100.00
10948;BME280;5526;42.070;24.752;2023-01-26T05:45:30;99539.00;;;4.02;100.00
10948;BME280;5526;42.070;24.752;2023-01-26T05:47:58;99502.91;;;3.80;100.00
10948;BME280;5526;42.070;24.752;2023-01-26T05:50:26;99530.59;;;4.07;100.00
10948;BME280;5526;42.070;24.752;2023-01-26T05:52:53;99524.38;;;4.08;100.00
10948;BME280;5526;42.070;24.752;2023-01-26T05:55:21;99527.22;;;4.13;100.00
10948;BME280;5526;42.070;24.752;2023-01-26T05:57:48;99531.22;;;4.09;100.00
10948;BME280;5526;42.070;24.752;2023-01-26T06:00:16;99525.00;;;4.10;100.00
10948;BME280;5526;42.070;24.752;2023-01-26T06:02:43;99523.63;;;4.14;100.00
10948;BME280;5526;42.070;24.752;2023-01-26T06:05:12;99524.59;;;4.00;100.00
10948;BME280;5526;42.070;24.752;2023-01-26T06:07:40;99525.97;;;3.96;100.00
10948;BME280;5526;42.070;24.752;2023-01-26T06:10:08;99514.97;;;3.94;100.00
10948;BME280;5526;42.070;24.752;2023-01-26T06:12:36;99523.38;;;4.02;100.00
10948;BME280;5526;42.070;24.752;2023-01-26T06:15:04;99517.38;;;4.02;100.00
10948;BME280;5526;42.070;24.752;2023-01-26T06:17:32;99519.56;;;4.05;100.00
10948;BME280;5526;42.070;24.752;2023-01-26T06:19:59;99519.19;;;4.14;100.00
10948;BME280;5526;42.070;24.752;2023-01-26T06:22:28;99521.00;;;4.14;100.00
10948;BME280;5526;42.070;24.752;2023-01-26T06:24:55;99522.22;;;4.18;100.00
10948;BME280;5526;42.070;24.752;2023-01-26T06:27:22;99523.63;;;4.14;100.00
10948;BME280;5526;42.070;24.752;2023-01-26T06:29:49;99529.00;;;4.12;100.00
10948;BME280;5526;42.070;24.752;2023-01-26T06:32:17;99531.81;;;3.98;100.00
10948;BME280;5526;42.070;24.752;2023-01-26T06:34:44;99533.00;;;4.08;100.00
10948;BME280;5526;42.070;24.752;2023-01-26T06:37:11;99532.19;;;4.08;100.00
10948;BME280;5526;42.070;24.752;2023-01-26T06:39:41;99528.97;;;3.93;100.00
10948;BME280;5526;42.070;24.752;2023-01-26T06:42:08;99517.75;;;3.86;100.00
10948;BME280;5526;42.070;24.752;2023-01-26T06:44:37;99512.53;;;3.79;100.00
10948;BME280;5526;42.070;24.752;2023-01-26T06:47:05;99513.34;;;3.86;100.00
10948;BME280;5526;42.070;24.752;2023-01-26T06:49:33;99511.34;;;3.88;100.00
10948;BME280;5526;42.070;24.752;2023-01-26T06:52:03;99508.34;;;3.85;100.00
10948;BME280;5526;42.070;24.752;2023-01-26T06:54:30;99499.75;;;3.84;100.00
10948;BME280;5526;42.070;24.752;2023-01-26T06:56:59;99502.94;;;3.93;100.00
10948;BME280;5526;42.070;24.752;2023-01-26T06:59:26;99496.56;;;3.95;100.00
10948;BME280;5526;42.070;24.752;2023-01-26T07:01:54;99502.75;;;3.94;100.00
10948;BME280;5526;42.070;24.752;2023-01-26T07:04:24;99506.97;;;3.95;100.00
10948;BME280;5526;42.070;24.752;2023-01-26T07:06:51;99498.53;;;4.00;100.00
10948;BME280;5526;42.070;24.752;2023-01-26T07:09:18;99498.53;;;4.00;100.00
10948;BME280;5526;42.070;24.752;2023-01-26T07:11:46;99494.56;;;4.17;100.00
10948;BME280;5526;42.070;24.752;2023-01-26T07:14:14;99481.53;;;4.04;100.00
10948;BME280;5526;42.070;24.752;2023-01-26T07:16:42;99477.94;;;4.11;100.00
10948;BME280;5526;42.070;24.752;2023-01-26T07:19:09;99475.72;;;4.15;100.00
10948;BME280;5526;42.070;24.752;2023-01-26T07:21:36;99475.31;;;4.05;100.00
10948;BME280;5526;42.070;24.752;2023-01-26T07:24:04;99474.91;;;3.95;100.00
10948;BME280;5526;42.070;24.752;2023-01-26T07:26:32;99474.72;;;4.03;100.00
10948;BME280;5526;42.070;24.752;2023-01-26T07:28:59;99473.09;;;3.89;100.00
10948;BME280;5526;42.070;24.752;2023-01-26T07:31:28;99467.09;;;3.82;100.00
10948;BME280;5526;42.070;24.752;2023-01-26T07:33:55;99470.88;;;3.73;100.00
10948;BME280;5526;42.070;24.752;2023-01-26T07:36:23;99475.28;;;3.66;100.00
10948;BME280;5526;42.070;24.752;2023-01-26T07:38:50;99460.88;;;3.70;100.00
10948;BME280;5526;42.070;24.752;2023-01-26T07:41:17;99464.88;;;3.79;100.00
10948;BME280;5526;42.070;24.752;2023-01-26T07:43:46;99455.06;;;3.68;100.00
10948;BME280;5526;42.070;24.752;2023-01-26T07:46:14;99450.03;;;3.60;100.00
10948;BME280;5526;42.070;24.752;2023-01-26T07:48:43;99454.03;;;3.49;100.00
10948;BME280;5526;42.070;24.752;2023-01-26T07:51:10;99452.44;;;3.48;100.00
10948;BME280;5526;42.070;24.752;2023-01-26T07:53:38;99457.63;;;3.48;100.00
10948;BME280;5526;42.070;24.752;2023-01-26T07:56:09;99453.59;;;3.46;100.00
10948;BME280;5526;42.070;24.752;2023-01-26T07:58:37;99454.03;;;3.49;100.00
10948;BME280;5526;42.070;24.752;2023-01-26T08:01:06;99451.22;;;3.51;100.00
10948;BME280;5526;42.070;24.752;2023-01-26T08:03:34;99445.59;;;3.54;100.00
10948;BME280;5526;42.070;24.752;2023-01-26T08:06:03;99451.63;;;3.54;100.00
10948;BME280;5526;42.070;24.752;2023-01-26T08:08:30;99444.44;;;3.56;100.00
10948;BME280;5526;42.070;24.752;2023-01-26T08:10:58;99446.59;;;3.40;100.00
10948;BME280;5526;42.070;24.752;2023-01-26T08:13:26;99438.34;;;3.30;100.00
10948;BME280;5526;42.070;24.752;2023-01-26T08:15:54;99440.53;;;3.20;100.00
10948;BME280;5526;42.070;24.752;2023-01-26T08:18:21;99438.69;;;3.14;100.00
10948;BME280;5526;42.070;24.752;2023-01-26T08:20:49;99441.13;;;3.22;100.00
10948;BME280;5526;42.070;24.752;2023-01-26T08:23:18;99430.75;;;3.28;100.00
10948;BME280;5526;42.070;24.752;2023-01-26T08:25:46;99428.75;;;3.30;100.00
10948;BME280;5526;42.070;24.752;2023-01-26T08:28:13;99429.31;;;3.19;100.00
10948;BME280;5526;42.070;24.752;2023-01-26T08:30:41;99435.94;;;3.22;100.00
10948;BME280;5526;42.070;24.752;2023-01-26T08:33:08;99431.91;;;3.13;100.00
10948;BME280;5526;42.070;24.752;2023-01-26T08:35:35;99421.53;;;3.19;100.00
10948;BME280;5526;42.070;24.752;2023-01-26T08:38:03;99428.31;;;3.20;100.00
10948;BME280;5526;42.070;24.752;2023-01-26T08:40:32;99415.91;;;3.09;100.00
10948;BME280;5526;42.070;24.752;2023-01-26T08:43:00;99414.66;;;2.99;100.00
10948;BME280;5526;42.070;24.752;2023-01-26T08:45:28;99418.69;;;3.01;100.00
10948;BME280;5526;42.070;24.752;2023-01-26T08:47:55;99414.06;;;3.03;100.00
10948;BME280;5526;42.070;24.752;2023-01-26T08:50:24;99408.31;;;3.08;100.00
10948;BME280;5526;42.070;24.752;2023-01-26T08:52:54;99409.78;;;2.83;100.00
10948;BME280;5526;42.070;24.752;2023-01-26T08:55:21;99405.81;;;2.93;100.00
10948;BME280;5526;42.070;24.752;2023-01-26T08:57:52;99399.66;;;2.94;100.00
10948;BME280;5526;42.070;24.752;2023-01-26T09:00:22;99395.47;;;3.00;100.00
10948;BME280;5526;42.070;24.752;2023-01-26T09:02:49;99398.19;;;2.85;100.00
10948;BME280;5526;42.070;24.752;2023-01-26T09:05:17;99403.22;;;2.93;100.00
10948;BME280;5526;42.070;24.752;2023-01-26T09:07:44;99397.59;;;2.83;100.00
10948;BME280;5526;42.070;24.752;2023-01-26T09:10:11;99395.38;;;2.80;100.00
10948;BME280;5526;42.070;24.752;2023-01-26T09:12:39;99398.78;;;2.74;100.00
10948;BME280;5526;42.070;24.752;2023-01-26T09:15:08;99390.97;;;2.74;100.00
10948;BME280;5526;42.070;24.752;2023-01-26T09:17:36;99379.78;;;2.74;100.00
10948;BME280;5526;42.070;24.752;2023-01-26T09:20:04;99382.59;;;2.79;100.00
10948;BME280;5526;42.070;24.752;2023-01-26T09:22:31;99385.72;;;2.68;100.00
10948;BME280;5526;42.070;24.752;2023-01-26T09:24:59;99388.75;;;2.71;100.00
10948;BME280;5526;42.070;24.752;2023-01-26T09:27:26;99389.00;;;2.83;100.00
10948;BME280;5526;42.070;24.752;2023-01-26T09:29:54;99373.22;;;2.84;100.00
10948;BME280;5526;42.070;24.752;2023-01-26T09:32:23;99370.41;;;2.86;100.00
10948;BME280;5526;42.070;24.752;2023-01-26T09:34:50;99367.44;;;2.89;100.00
10948;BME280;5526;42.070;24.752;2023-01-26T09:37:17;99365.22;;;2.86;100.00
10948;BME280;5526;42.070;24.752;2023-01-26T09:39:45;99357.81;;;2.83;100.00
10948;BME280;5526;42.070;24.752;2023-01-26T09:42:31;99358.63;;;2.90;100.00
10948;BME280;5526;42.070;24.752;2023-01-26T09:45:11;99353.63;;;2.88;100.00
10948;BME280;5526;42.070;24.752;2023-01-26T09:47:54;99341.38;;;2.76;100.00
10948;BME280;5526;42.070;24.752;2023-01-26T09:50:27;99333.38;;;2.71;100.00
10948;BME280;5526;42.070;24.752;2023-01-26T09:52:59;99334.97;;;2.72;100.00
10948;BME280;5526;42.070;24.752;2023-01-26T09:55:28;99335.06;;;2.91;100.00
10948;BME280;5526;42.070;24.752;2023-01-26T09:58:00;99321.50;;;3.02;100.00
10948;BME280;5526;42.070;24.752;2023-01-26T10:00:32;99321.88;;;2.99;100.00
10948;BME280;5526;42.070;24.752;2023-01-26T10:03:16;99317.06;;;2.96;100.00
10948;BME280;5526;42.070;24.752;2023-01-26T10:05:49;99311.88;;;3.03;100.00
10948;BME280;5526;42.070;24.752;2023-01-26T10:08:19;99309.50;;;3.08;100.00
10948;BME280;5526;42.070;24.752;2023-01-26T10:10:49;99290.88;;;2.91;100.00
10948;BME280;5526;42.070;24.752;2023-01-26T10:13:19;99304.31;;;3.08;100.00
10948;BME280;5526;42.070;24.752;2023-01-26T10:15:51;99302.69;;;3.07;100.00
10948;BME280;5526;42.070;24.752;2023-01-26T10:18:24;99302.50;;;3.15;100.00
10948;BME280;5526;42.070;24.752;2023-01-26T10:20:54;99301.28;;;3.04;100.00
10948;BME280;5526;42.070;24.752;2023-01-26T10:23:26;99287.28;;;2.99;100.00
10948;BME280;5526;42.070;24.752;2023-01-26T10:26:00;99292.72;;;3.10;100.00
10948;BME280;5526;42.070;24.752;2023-01-26T10:28:32;99286.09;;;3.14;100.00
10948;BME280;5526;42.070;24.752;2023-01-26T10:31:01;99277.50;;;3.14;100.00
10948;BME280;5526;42.070;24.752;2023-01-26T10:33:33;99271.50;;;3.20;100.00
10948;BME280;5526;42.070;24.752;2023-01-26T10:36:02;99259.72;;;3.30;100.00
10948;BME280;5526;42.070;24.752;2023-01-26T10:38:40;99244.69;;;3.32;100.00
10948;BME280;5526;42.070;24.752;2023-01-26T10:41:24;99239.50;;;3.39;100.00
10948;BME280;5526;42.070;24.752;2023-01-26T10:43:54;99239.09;;;3.42;100.00
10948;BME280;5526;42.070;24.752;2023-01-26T10:46:27;99223.47;;;3.42;100.00
10948;BME280;5526;42.070;24.752;2023-01-26T10:48:58;99236.47;;;3.42;100.00
10948;BME280;5526;42.070;24.752;2023-01-26T10:51:28;99225.50;;;3.33;100.00
10948;BME280;5526;42.070;24.752;2023-01-26T10:54:20;99223.91;;;3.39;100.00
10948;BME280;5526;42.070;24.752;2023-01-26T10:56:50;99219.69;;;3.38;100.00
10948;BME280;5526;42.070;24.752;2023-01-26T10:59:25;99220.31;;;3.33;100.00
10948;BME280;5526;42.070;24.752;2023-01-26T11:01:59;99215.09;;;3.33;100.00
10948;BME280;5526;42.070;24.752;2023-01-26T11:04:29;99216.53;;;4.06;100.00
10948;BME280;5526;42.070;24.752;2023-01-26T11:07:23;99213.19;;;3.79;100.00
10948;BME280;5526;42.070;24.752;2023-01-26T11:09:51;99199.00;;;3.69;100.00
10948;BME280;5526;42.070;24.752;2023-01-26T11:12:20;99199.78;;;3.82;100.00
10948;BME280;5526;42.070;24.752;2023-01-26T11:15:00;99192.25;;;3.61;100.00
10948;BME280;5526;42.070;24.752;2023-01-26T11:17:35;99198.59;;;3.72;100.00
10948;BME280;5526;42.070;24.752;2023-01-26T11:23:11;99183.72;;;3.92;100.00
10948;BME280;5526;42.070;24.752;2023-01-26T11:25:53;99184.94;;;3.89;100.00
10948;BME280;5526;42.070;24.752;2023-01-26T11:28:35;99177.28;;;4.01;100.00
10948;BME280;5526;42.070;24.752;2023-01-26T11:31:14;99166.84;;;4.01;100.00
10948;BME280;5526;42.070;24.752;2023-01-26T11:33:49;99150.56;;;3.74;100.00
10948;BME280;5526;42.070;24.752;2023-01-26T11:36:29;99147.69;;;3.95;100.00
10948;BME280;5526;42.070;24.752;2023-01-26T11:39:06;99134.06;;;3.93;100.00
10948;BME280;5526;42.070;24.752;2023-01-26T11:41:46;99124.03;;;3.97;100.00
10948;BME280;5526;42.070;24.752;2023-01-26T11:44:32;99117.75;;;4.11;100.00
10948;BME280;5526;42.070;24.752;2023-01-26T11:47:15;99125.56;;;4.11;100.00
10948;BME280;5526;42.070;24.752;2023-01-26T11:50:03;99117.91;;;4.16;100.00
10948;BME280;5526;42.070;24.752;2023-01-26T11:52:45;99119.28;;;4.25;100.00
10948;BME280;5526;42.070;24.752;2023-01-26T11:55:22;99108.16;;;4.36;100.00
10948;BME280;5526;42.070;24.752;2023-01-26T11:58:10;99111.13;;;4.46;100.00
10948;BME280;5526;42.070;24.752;2023-01-26T12:00:42;99103.88;;;4.48;100.00
10948;BME280;5526;42.070;24.752;2023-01-26T12:03:19;99096.66;;;4.50;100.00
10948;BME280;5526;42.070;24.752;2023-01-26T12:05:52;99096.25;;;5.38;100.00
10948;BME280;5526;42.070;24.752;2023-01-26T12:08:24;99091.66;;;4.98;100.00
10948;BME280;5526;42.070;24.752;2023-01-26T12:11:00;99094.00;;;4.81;100.00
10948;BME280;5526;42.070;24.752;2023-01-26T12:13:52;99090.09;;;4.65;100.00
10948;BME280;5526;42.070;24.752;2023-01-26T12:16:26;99088.09;;;4.68;100.00
10948;BME280;5526;42.070;24.752;2023-01-26T12:19:03;99082.69;;;4.69;100.00
10948;BME280;5526;42.070;24.752;2023-01-26T12:21:37;99080.50;;;4.66;100.00
10948;BME280;5526;42.070;24.752;2023-01-26T12:24:13;99082.13;;;4.36;100.00
10948;BME280;5526;42.070;24.752;2023-01-26T12:26:48;99067.47;;;4.10;100.00
10948;BME280;5526;42.070;24.752;2023-01-26T12:29:21;99070.13;;;4.04;100.00
10948;BME280;5526;42.070;24.752;2023-01-26T12:31:56;99075.72;;;4.07;100.00
10948;BME280;5526;42.070;24.752;2023-01-26T12:34:26;99076.38;;;3.96;100.00
10948;BME280;5526;42.070;24.752;2023-01-26T12:37:06;99066.28;;;4.13;100.00
10948;BME280;5526;42.070;24.752;2023-01-26T12:39:43;99059.41;;;4.18;100.00
10948;BME280;5526;42.070;24.752;2023-01-26T12:42:18;99071.00;;;4.22;100.00
10948;BME280;5526;42.070;24.752;2023-01-26T12:44:53;99059.09;;;4.08;100.00
10948;BME280;5526;42.070;24.752;2023-01-26T12:47:23;99062.59;;;4.20;100.00
10948;BME280;5526;42.070;24.752;2023-01-26T12:49:58;99053.06;;;4.08;100.00
10948;BME280;5526;42.070;24.752;2023-01-26T12:52:30;99057.75;;;3.93;100.00
10948;BME280;5526;42.070;24.752;2023-01-26T12:55:05;99048.78;;;3.89;100.00
10948;BME280;5526;42.070;24.752;2023-01-26T12:57:39;99055.03;;;4.86;100.00
10948;BME280;5526;42.070;24.752;2023-01-26T13:00:17;99053.53;;;4.54;100.00
10948;BME280;5526;42.070;24.752;2023-01-26T13:02:47;99053.72;;;4.28;100.00
10948;BME280;5526;42.070;24.752;2023-01-26T13:05:24;99052.75;;;5.14;100.00
10948;BME280;5526;42.070;24.752;2023-01-26T13:07:52;99037.47;;;4.57;100.00
10948;BME280;5526;42.070;24.752;2023-01-26T13:10:27;99042.97;;;4.49;100.00
10948;BME280;5526;42.070;24.752;2023-01-26T13:12:57;99043.69;;;4.31;100.00
10948;BME280;5526;42.070;24.752;2023-01-26T13:15:26;99036.88;;;4.06;100.00
10948;BME280;5526;42.070;24.752;2023-01-26T13:17:58;99024.09;;;3.98;100.00
10948;BME280;5526;42.070;24.752;2023-01-26T13:20:44;99029.66;;;3.70;100.00
10948;BME280;5526;42.070;24.752;2023-01-26T13:23:38;99022.00;;;4.62;100.00
10948;BME280;5526;42.070;24.752;2023-01-26T13:26:16;99018.69;;;3.99;100.00